Time;durP1;ratioP1;P1;durP2;ratioP2;P2;SDS_P1;SDS_P2;PMS_P1;PMS_P2;Temp;Humidity;BMP_temperature;BMP_pressure;BME280_temperature;BME280_humidity;BME280_pressure;Samples;Min_cycle;Max_cycle;Signal;HPM_P1;HPM_P2
2023/09/05 00:00:20;;;;;;;2.28;0.60;;;20.70;32.60;;;;;;5074647;28;20536;-81
2023/09/05 00:02:50;;;;;;;1.23;0.60;;;20.80;33.80;;;;;;5075906;28;20032;-79
2023/09/05 00:05:19;;;;;;;1.42;0.50;;;20.80;33.00;;;;;;5075656;28;20048;-78
2023/09/05 00:07:46;;;;;;;0.50;0.50;;;20.80;34.30;;;;;;5075744;28;20541;-80
2023/09/05 00:10:15;;;;;;;1.17;0.50;;;20.90;33.60;;;;;;5075736;28;20035;-80
2023/09/05 00:12:43;;;;;;;4.78;0.68;;;21.00;32.80;;;;;;5074237;28;20036;-78
2023/09/05 00:15:14;;;;;;;0.50;0.50;;;21.20;31.20;;;;;;5075555;28;20021;-76
2023/09/05 00:17:45;;;;;;;2.90;0.50;;;21.20;32.90;;;;;;5075763;28;20032;-77
2023/09/05 00:20:15;;;;;;;1.88;0.40;;;21.30;31.10;;;;;;5075607;28;20017;-80
2023/09/05 00:22:43;;;;;;;2.38;0.63;;;21.40;30.80;;;;;;5075344;28;20020;-77
2023/09/05 00:25:11;;;;;;;0.77;0.52;;;21.50;29.70;;;;;;5074936;28;20108;-80
2023/09/05 00:27:40;;;;;;;3.83;0.52;;;21.60;28.70;;;;;;5075436;28;20040;-80
2023/09/05 00:30:08;;;;;;;0.60;0.43;;;21.70;29.10;;;;;;5075405;28;20021;-80
2023/09/05 00:32:37;;;;;;;3.15;0.52;;;21.70;27.90;;;;;;5075214;28;20032;-81
2023/09/05 00:35:05;;;;;;;2.53;0.60;;;21.80;25.90;;;;;;5073923;28;20068;-78
2023/09/05 00:37:33;;;;;;;1.38;0.40;;;21.80;25.30;;;;;;5075126;28;20353;-80
2023/09/05 00:40:00;;;;;;;1.13;0.50;;;21.90;26.60;;;;;;5075108;28;20471;-82
2023/09/05 00:42:28;;;;;;;2.83;0.50;;;21.90;25.70;;;;;;5075270;28;20033;-81
2023/09/05 00:44:55;;;;;;;2.28;0.43;;;22.00;25.40;;;;;;5074909;28;20070;-78
2023/09/05 00:47:30;;;;;;;1.00;0.45;;;22.00;25.80;;;;;;5075280;28;20029;-78
2023/09/05 00:50:05;;;;;;;0.65;0.30;;;22.10;26.30;;;;;;5075174;28;20350;-79
2023/09/05 00:52:33;;;;;;;1.65;0.68;;;22.30;27.00;;;;;;5073485;28;20067;-79
2023/09/05 00:55:05;;;;;;;5.40;0.50;;;22.50;26.90;;;;;;5074823;28;20387;-80
2023/09/05 00:57:33;;;;;;;2.33;0.50;;;22.50;24.90;;;;;;5074828;28;20036;-78
2023/09/05 01:00:00;;;;;;;1.73;0.40;;;22.40;26.50;;;;;;5074892;28;20017;-80
2023/09/05 01:02:27;;;;;;;1.73;0.50;;;22.40;26.70;;;;;;5074769;28;20027;-78
2023/09/05 01:04:56;;;;;;;3.40;0.50;;;22.50;26.50;;;;;;5074421;28;20460;-77
2023/09/05 01:07:49;;;;;;;0.40;0.25;;;22.60;26.40;;;;;;5074558;28;20032;-80
2023/09/05 01:10:22;;;;;;;0.65;0.47;;;22.50;26.00;;;;;;5074533;28;20024;-77
2023/09/05 01:12:49;;;;;;;2.55;0.60;;;22.50;26.00;;;;;;5074389;28;20032;-78
2023/09/05 01:15:17;;;;;;;1.05;0.50;;;22.70;25.40;;;;;;5074351;28;20024;-77
2023/09/05 01:17:45;;;;;;;1.65;0.55;;;22.80;27.00;;;;;;5074472;28;20433;-78
2023/09/05 01:20:16;;;;;;;1.75;0.55;;;22.90;27.30;;;;;;5074705;28;20059;-80
2023/09/05 01:23:13;;;;;;;0.40;0.40;;;23.00;27.40;;;;;;5074270;28;20027;-76
2023/09/05 01:25:41;;;;;;;2.10;0.43;;;23.30;26.90;;;;;;5074225;28;20040;-77
2023/09/05 01:28:11;;;;;;;1.50;0.50;;;23.20;24.70;;;;;;5074320;28;20490;-78
2023/09/05 01:30:42;;;;;;;1.25;0.50;;;23.10;25.30;;;;;;5074367;28;20028;-82
2023/09/05 01:33:11;;;;;;;0.52;0.50;;;23.00;24.90;;;;;;5073957;28;20420;-80
2023/09/05 01:35:39;;;;;;;0.80;0.50;;;23.20;25.80;;;;;;5074291;28;20025;-77
2023/09/05 01:38:08;;;;;;;0.63;0.45;;;23.10;25.20;;;;;;5074436;28;20048;-77
2023/09/05 01:40:35;;;;;;;1.63;0.60;;;23.20;25.70;;;;;;5074271;28;20019;-81
2023/09/05 01:43:03;;;;;;;0.88;0.43;;;23.30;25.90;;;;;;5074076;28;20020;-82
2023/09/05 01:45:30;;;;;;;0.98;0.40;;;23.50;25.50;;;;;;5073829;28;20060;-79
2023/09/05 01:47:58;;;;;;;3.53;0.63;;;23.40;24.40;;;;;;5074123;28;20467;-82
2023/09/05 01:50:31;;;;;;;1.00;0.40;;;23.40;24.50;;;;;;5074020;28;20055;-78
2023/09/05 01:52:58;;;;;;;1.45;0.60;;;23.50;24.40;;;;;;5073565;28;20055;-77
2023/09/05 01:55:26;;;;;;;2.85;0.47;;;23.50;24.00;;;;;;5073597;28;20039;-80
2023/09/05 01:57:53;;;;;;;1.45;0.65;;;23.50;24.40;;;;;;5075361;28;20026;-76
2023/09/05 02:00:21;;;;;;;2.58;0.60;;;23.50;23.70;;;;;;5073976;28;20017;-76
2023/09/05 02:02:49;;;;;;;0.30;0.30;;;23.40;22.50;;;;;;5073599;28;20025;-77
2023/09/05 02:05:16;;;;;;;2.47;0.30;;;23.30;23.80;;;;;;5073527;28;20433;-78
2023/09/05 02:07:44;;;;;;;0.55;0.40;;;23.40;23.80;;;;;;5073192;28;20098;-78
2023/09/05 02:10:11;;;;;;;5.43;0.60;;;23.40;22.60;;;;;;5073183;28;20471;-80
2023/09/05 02:12:45;;;;;;;0.30;0.30;;;23.50;22.80;;;;;;5071748;28;20109;-78
2023/09/05 02:15:13;;;;;;;0.63;0.47;;;23.50;21.20;;;;;;5072922;28;20029;-77
2023/09/05 02:17:40;;;;;;;0.32;0.32;;;23.50;21.50;;;;;;5073073;28;20078;-77
2023/09/05 02:20:08;;;;;;;1.15;0.40;;;23.50;22.50;;;;;;5073202;28;20032;-79
2023/09/05 02:22:35;;;;;;;0.47;0.47;;;23.50;21.90;;;;;;5072923;28;20475;-78
2023/09/05 02:25:03;;;;;;;1.15;0.47;;;23.50;22.00;;;;;;5072781;28;20100;-77
2023/09/05 02:27:30;;;;;;;0.45;0.38;;;23.50;22.40;;;;;;5072982;28;20063;-78
2023/09/05 02:30:01;;;;;;;0.85;0.40;;;23.70;22.90;;;;;;5072126;28;20065;-81
2023/09/05 02:32:31;;;;;;;4.20;0.50;;;23.80;23.00;;;;;;5074444;28;20064;-84
2023/09/05 02:34:59;;;;;;;0.60;0.32;;;23.80;20.80;;;;;;5074407;28;20106;-84
2023/09/05 02:37:27;;;;;;;2.10;0.40;;;23.80;22.00;;;;;;5075127;28;20029;-78
2023/09/05 02:39:54;;;;;;;0.47;0.32;;;23.80;21.40;;;;;;5078006;28;20495;-79
2023/09/05 02:42:22;;;;;;;1.05;0.45;;;23.80;21.90;;;;;;5076087;28;20063;-83
2023/09/05 02:44:53;;;;;;;1.13;0.32;;;24.00;21.40;;;;;;5075943;28;20424;-84
2023/09/05 02:47:22;;;;;;;1.95;0.50;;;23.90;21.40;;;;;;5073473;28;20446;-85
2023/09/05 02:49:51;;;;;;;0.40;0.40;;;23.90;21.70;;;;;;5073292;28;20027;-83
2023/09/05 02:52:21;;;;;;;1.80;0.60;;;23.90;22.40;;;;;;5073997;28;20028;-81
2023/09/05 02:54:49;;;;;;;1.15;0.52;;;24.00;22.50;;;;;;5074629;28;20091;-79
2023/09/05 02:57:18;;;;;;;1.27;0.40;;;24.00;21.70;;;;;;5074221;28;20096;-86
2023/09/05 02:59:46;;;;;;;0.40;0.30;;;24.10;23.00;;;;;;5074870;28;20032;-82
2023/09/05 03:02:15;;;;;;;0.93;0.40;;;24.20;21.70;;;;;;5086620;28;20126;-77
2023/09/05 03:04:43;;;;;;;2.88;0.50;;;24.20;21.40;;;;;;5094565;28;20024;-76
2023/09/05 03:07:10;;;;;;;3.45;0.40;;;24.10;21.10;;;;;;5088746;28;20025;-77
2023/09/05 03:09:38;;;;;;;1.60;0.50;;;24.10;20.60;;;;;;5078080;28;20380;-75
2023/09/05 03:12:06;;;;;;;0.80;0.50;;;24.20;21.80;;;;;;5078349;28;20027;-76
2023/09/05 03:14:34;;;;;;;0.82;0.50;;;24.20;21.20;;;;;;5077906;28;20035;-76
2023/09/05 03:17:03;;;;;;;1.55;0.50;;;24.20;21.30;;;;;;5075739;28;20460;-75
2023/09/05 03:19:30;;;;;;;0.50;0.40;;;24.20;20.70;;;;;;5076617;28;20025;-76
2023/09/05 03:21:57;;;;;;;0.32;0.30;;;24.20;20.60;;;;;;5078428;28;20147;-77
2023/09/05 03:24:25;;;;;;;1.55;0.57;;;24.20;21.30;;;;;;5077681;28;20433;-78
2023/09/05 03:26:52;;;;;;;1.55;0.50;;;24.30;21.90;;;;;;5076379;28;20081;-81
2023/09/05 03:29:20;;;;;;;3.60;0.60;;;24.30;20.10;;;;;;5074526;28;20023;-77
2023/09/05 03:31:47;;;;;;;2.15;0.60;;;24.30;20.90;;;;;;5074787;28;20022;-79
2023/09/05 03:34:14;;;;;;;0.73;0.40;;;24.40;21.40;;;;;;5073967;28;20044;-82
2023/09/05 03:36:43;;;;;;;2.40;0.40;;;24.50;21.80;;;;;;5072673;28;20028;-80
2023/09/05 03:39:10;;;;;;;1.92;0.60;;;24.50;20.90;;;;;;5074525;28;20029;-77
2023/09/05 03:41:38;;;;;;;1.02;0.80;;;24.50;21.70;;;;;;5073601;28;20084;-79
2023/09/05 03:44:05;;;;;;;2.70;0.70;;;24.50;20.60;;;;;;5074602;28;20043;-78
2023/09/05 03:46:33;;;;;;;3.67;0.47;;;24.40;22.40;;;;;;5079949;28;20025;-75
2023/09/05 03:49:00;;;;;;;1.80;0.60;;;24.50;22.40;;;;;;5079770;28;20395;-77
2023/09/05 03:51:29;;;;;;;1.35;0.50;;;24.50;23.30;;;;;;5078703;28;20025;-76
2023/09/05 03:53:59;;;;;;;4.22;0.50;;;24.60;22.30;;;;;;5074649;28;20032;-77
2023/09/05 03:56:27;;;;;;;4.50;0.30;;;24.60;22.10;;;;;;5073596;28;20025;-77
2023/09/05 03:58:55;;;;;;;0.70;0.40;;;24.60;21.10;;;;;;5070887;28;20537;-80
2023/09/05 04:01:24;;;;;;;0.30;0.30;;;24.60;22.00;;;;;;5072427;28;20444;-78
2023/09/05 04:03:53;;;;;;;2.45;0.50;;;24.60;21.20;;;;;;5071444;28;20025;-82
2023/09/05 04:06:22;;;;;;;2.58;0.60;;;24.60;21.20;;;;;;5072158;28;20032;-79
2023/09/05 04:08:49;;;;;;;0.73;0.60;;;24.60;22.30;;;;;;5073249;28;20078;-80
2023/09/05 04:11:16;;;;;;;0.80;0.47;;;24.60;21.80;;;;;;5075792;28;20022;-80
2023/09/05 04:13:44;;;;;;;1.02;0.57;;;24.70;19.60;;;;;;5074589;28;20033;-79
2023/09/05 04:16:13;;;;;;;2.08;0.60;;;24.70;23.00;;;;;;5075889;28;20036;-78
2023/09/05 04:18:41;;;;;;;0.50;0.47;;;24.60;20.70;;;;;;5075728;28;20052;-81
2023/09/05 04:21:11;;;;;;;3.00;0.40;;;24.60;21.90;;;;;;5075231;28;20498;-80
2023/09/05 04:23:41;;;;;;;1.20;0.50;;;24.70;22.30;;;;;;5075917;28;20029;-81
2023/09/05 04:26:11;;;;;;;4.82;0.60;;;24.70;20.70;;;;;;5075375;28;20094;-80
2023/09/05 04:28:38;;;;;;;1.20;0.75;;;24.80;21.30;;;;;;5075678;28;20055;-78
2023/09/05 04:31:06;;;;;;;2.50;0.60;;;24.80;20.50;;;;;;5075195;28;20017;-80
2023/09/05 04:33:37;;;;;;;2.75;0.70;;;24.80;20.10;;;;;;5075381;28;20025;-82
2023/09/05 04:36:08;;;;;;;0.95;0.50;;;24.70;20.40;;;;;;5075356;28;20498;-80
2023/09/05 04:38:36;;;;;;;0.50;0.40;;;24.80;21.50;;;;;;5075330;28;20024;-80
2023/09/05 04:41:05;;;;;;;1.10;0.30;;;24.90;21.70;;;;;;5075185;28;20028;-78
2023/09/05 04:43:33;;;;;;;1.20;0.40;;;24.80;20.30;;;;;;5075075;28;20027;-81
2023/09/05 04:46:05;;;;;;;0.32;0.25;;;24.90;21.00;;;;;;5075209;28;20039;-84
2023/09/05 04:48:33;;;;;;;0.55;0.35;;;24.80;20.10;;;;;;5075429;28;20028;-82
2023/09/05 04:51:03;;;;;;;0.38;0.38;;;24.80;20.20;;;;;;5074926;28;20025;-79
2023/09/05 04:53:31;;;;;;;0.43;0.40;;;24.90;20.90;;;;;;5075090;28;20063;-83
2023/09/05 04:56:02;;;;;;;0.30;0.25;;;24.90;21.20;;;;;;5075088;28;20386;-79
2023/09/05 04:58:31;;;;;;;0.45;0.43;;;25.00;20.70;;;;;;5073891;28;20493;-85
2023/09/05 05:01:03;;;;;;;0.40;0.40;;;25.00;20.90;;;;;;5073649;28;20035;-84
2023/09/05 05:03:32;;;;;;;1.85;0.40;;;25.00;19.40;;;;;;5075438;28;20367;-81
2023/09/05 05:06:09;;;;;;;0.40;0.30;;;25.00;20.20;;;;;;5074832;28;20036;-77
2023/09/05 05:08:37;;;;;;;2.60;0.40;;;25.00;18.80;;;;;;5074726;28;20028;-84
2023/09/05 05:11:05;;;;;;;1.02;0.45;;;25.00;19.20;;;;;;5073555;28;20042;-77
2023/09/05 05:13:33;;;;;;;0.68;0.40;;;25.00;18.60;;;;;;5073122;28;20391;-82
2023/09/05 05:16:01;;;;;;;1.50;0.35;;;24.90;18.70;;;;;;5074610;28;20467;-83
2023/09/05 05:18:28;;;;;;;0.50;0.50;;;25.00;18.80;;;;;;5074558;28;20032;-78
2023/09/05 05:20:56;;;;;;;1.77;0.73;;;25.00;19.60;;;;;;5073615;28;20021;-77
2023/09/05 05:23:23;;;;;;;1.10;0.55;;;25.00;19.60;;;;;;5075128;28;20107;-77
2023/09/05 05:25:50;;;;;;;2.60;0.40;;;25.00;19.00;;;;;;5073085;28;20037;-79
2023/09/05 05:28:18;;;;;;;0.32;0.30;;;25.00;19.90;;;;;;5074619;28;20025;-85
2023/09/05 05:30:48;;;;;;;0.73;0.38;;;25.00;20.80;;;;;;5074578;28;20062;-78
2023/09/05 05:33:15;;;;;;;0.88;0.43;;;24.90;19.50;;;;;;5074146;28;20085;-86
2023/09/05 05:35:51;;;;;;;2.03;0.57;;;24.90;20.00;;;;;;5072966;28;20044;-80
2023/09/05 05:38:19;;;;;;;1.02;0.50;;;24.80;19.40;;;;;;5074429;28;20078;-78
2023/09/05 05:40:46;;;;;;;0.60;0.50;;;24.90;20.70;;;;;;5073423;28;20021;-80
2023/09/05 05:43:17;;;;;;;3.92;0.40;;;24.80;19.60;;;;;;5073988;28;20024;-85
2023/09/05 05:45:47;;;;;;;0.50;0.50;;;24.80;20.10;;;;;;5073961;28;20028;-78
2023/09/05 05:48:14;;;;;;;0.50;0.50;;;24.70;20.20;;;;;;5072901;28;20036;-85
2023/09/05 05:50:43;;;;;;;1.83;0.50;;;24.70;19.90;;;;;;5073933;28;20028;-79
2023/09/05 05:53:10;;;;;;;1.15;0.60;;;24.60;20.00;;;;;;5073268;28;20032;-80
2023/09/05 05:55:38;;;;;;;2.80;0.50;;;24.50;20.70;;;;;;5072799;28;20024;-85
2023/09/05 05:58:05;;;;;;;0.98;0.60;;;24.50;21.50;;;;;;5073262;28;20047;-78
2023/09/05 06:00:32;;;;;;;3.42;0.70;;;24.50;21.50;;;;;;5073451;28;20104;-86
2023/09/05 06:03:00;;;;;;;1.00;0.70;;;24.40;19.90;;;;;;5072648;28;20392;-77
2023/09/05 06:05:27;;;;;;;1.30;0.70;;;24.40;19.50;;;;;;5072940;28;20024;-87
2023/09/05 06:07:56;;;;;;;1.63;0.60;;;24.30;19.90;;;;;;5071882;28;20069;-80
2023/09/05 06:10:23;;;;;;;5.68;0.70;;;24.30;19.70;;;;;;5073000;28;20092;-77
2023/09/05 06:12:50;;;;;;;9.70;1.20;;;24.30;19.90;;;;;;5072738;28;20040;-77
2023/09/05 06:15:19;;;;;;;2.75;0.90;;;24.30;20.30;;;;;;5072776;28;20074;-82
2023/09/05 06:17:46;;;;;;;3.53;0.90;;;24.20;20.60;;;;;;5073627;28;20387;-78
2023/09/05 06:20:17;;;;;;;1.98;1.20;;;24.20;21.50;;;;;;5062702;28;20031;-83
2023/09/05 06:22:47;;;;;;;1.73;0.90;;;24.10;21.30;;;;;;5067702;28;20043;-81
2023/09/05 06:25:16;;;;;;;2.35;1.42;;;24.10;20.80;;;;;;5066708;28;20047;-83
2023/09/05 06:27:44;;;;;;;0.73;0.50;;;24.00;20.40;;;;;;5066922;28;20044;-82
2023/09/05 06:30:16;;;;;;;5.50;0.70;;;24.00;20.10;;;;;;5066836;28;20039;-85
2023/09/05 06:32:44;;;;;;;0.88;0.50;;;23.90;21.20;;;;;;5066341;28;20032;-85
2023/09/05 06:35:11;;;;;;;0.88;0.60;;;23.80;20.70;;;;;;5068230;28;20016;-85
2023/09/05 06:37:40;;;;;;;1.38;0.50;;;23.80;19.10;;;;;;5067668;28;20052;-85
2023/09/05 06:40:14;;;;;;;2.90;0.70;;;23.70;20.10;;;;;;5065825;28;20020;-87
2023/09/05 06:42:43;;;;;;;1.38;0.50;;;23.70;20.40;;;;;;5067581;28;20111;-86
2023/09/05 06:45:12;;;;;;;1.73;0.57;;;23.60;20.80;;;;;;5066803;28;20029;-86
2023/09/05 06:47:42;;;;;;;1.45;0.40;;;23.50;19.90;;;;;;5068086;28;20074;-84
2023/09/05 06:50:10;;;;;;;1.90;0.57;;;23.40;20.00;;;;;;5065268;28;20041;-83
2023/09/05 06:52:39;;;;;;;1.05;0.50;;;23.30;20.10;;;;;;5069547;28;20079;-83
2023/09/05 06:55:06;;;;;;;0.68;0.50;;;23.20;20.80;;;;;;5067805;28;20042;-82
2023/09/05 06:57:34;;;;;;;0.65;0.40;;;23.10;21.80;;;;;;5067860;28;20108;-77
2023/09/05 07:00:01;;;;;;;1.05;0.60;;;23.00;21.40;;;;;;5066085;28;20025;-79
2023/09/05 07:02:29;;;;;;;0.40;0.40;;;23.00;21.70;;;;;;5065523;28;20034;-77
2023/09/05 07:04:57;;;;;;;1.40;0.50;;;22.90;20.20;;;;;;5065117;28;20021;-82
2023/09/05 07:07:25;;;;;;;0.40;0.40;;;22.80;20.50;;;;;;5066927;28;20016;-80
2023/09/05 07:09:53;;;;;;;5.05;0.60;;;22.80;21.60;;;;;;5065473;28;20134;-82
2023/09/05 07:12:20;;;;;;;0.75;0.50;;;22.70;21.40;;;;;;5067196;28;20036;-84
2023/09/05 07:14:49;;;;;;;0.60;0.50;;;22.70;22.30;;;;;;5067304;28;20045;-84
2023/09/05 07:17:16;;;;;;;0.93;0.50;;;22.60;22.40;;;;;;5066834;28;20061;-84
2023/09/05 07:19:45;;;;;;;0.40;0.40;;;22.50;21.90;;;;;;5065356;28;20025;-81
2023/09/05 07:22:12;;;;;;;2.97;0.52;;;22.40;21.80;;;;;;5065563;28;20036;-84
2023/09/05 07:24:40;;;;;;;0.98;0.80;;;22.30;21.60;;;;;;5067331;28;20028;-84
2023/09/05 07:27:11;;;;;;;3.15;0.60;;;22.30;22.00;;;;;;5066736;28;20629;-86
2023/09/05 07:29:39;;;;;;;1.17;0.77;;;22.20;22.40;;;;;;5065963;28;20035;-79
2023/09/05 07:32:08;;;;;;;1.02;0.60;;;22.20;22.30;;;;;;5050095;28;20116;-81
2023/09/05 07:34:35;;;;;;;1.40;0.63;;;22.20;21.90;;;;;;5066288;28;20036;-84
2023/09/05 07:37:03;;;;;;;0.98;0.70;;;22.10;22.70;;;;;;5066637;28;20064;-79
2023/09/05 07:39:43;;;;;;;3.33;0.80;;;22.00;23.80;;;;;;5065981;28;20045;-85
2023/09/05 07:42:10;;;;;;;1.40;0.82;;;21.90;24.30;;;;;;5067837;28;20064;-84
2023/09/05 07:44:37;;;;;;;3.05;0.90;;;21.80;23.80;;;;;;5078928;28;20016;-77
2023/09/05 07:47:05;;;;;;;0.98;0.60;;;21.80;23.30;;;;;;5085468;28;20043;-76
2023/09/05 07:49:36;;;;;;;3.35;1.70;;;21.70;22.20;;;;;;5078851;28;20467;-77
2023/09/05 07:52:07;;;;;;;1.58;0.88;;;21.60;22.70;;;;;;5073222;28;20024;-83
2023/09/05 07:54:35;;;;;;;1.55;1.00;;;21.60;23.30;;;;;;5075886;28;20064;-84
2023/09/05 07:57:03;;;;;;;1.70;1.30;;;21.60;21.70;;;;;;5070984;28;20043;-81
2023/09/05 07:59:33;;;;;;;2.35;1.42;;;21.60;22.10;;;;;;5068258;28;20064;-77
2023/09/05 08:02:04;;;;;;;2.97;1.58;;;21.50;22.40;;;;;;5070425;28;20116;-84
2023/09/05 08:04:31;;;;;;;2.42;1.13;;;21.40;23.30;;;;;;5069912;28;20064;-82
2023/09/05 08:07:00;;;;;;;2.50;1.35;;;21.30;22.80;;;;;;5069936;28;20620;-84
2023/09/05 08:09:27;;;;;;;1.65;1.20;;;21.30;21.60;;;;;;5070229;28;20029;-85
2023/09/05 08:11:55;;;;;;;1.00;0.90;;;21.30;22.90;;;;;;5076076;28;21036;-87
2023/09/05 08:14:22;;;;;;;1.05;0.90;;;21.20;22.50;;;;;;5084716;28;20039;-81
2023/09/05 08:16:50;;;;;;;1.05;0.80;;;21.10;23.40;;;;;;5089114;28;20374;-82
2023/09/05 08:19:17;;;;;;;2.85;1.42;;;21.10;23.60;;;;;;5080471;28;20096;-85
2023/09/05 08:21:46;;;;;;;2.05;1.42;;;21.00;23.70;;;;;;5084389;28;20479;-83
2023/09/05 08:24:13;;;;;;;2.25;1.20;;;21.00;24.10;;;;;;5084112;28;20475;-82
2023/09/05 08:26:41;;;;;;;3.35;1.23;;;20.90;24.10;;;;;;5093354;28;20356;-84
2023/09/05 08:29:08;;;;;;;1.15;0.98;;;20.80;25.10;;;;;;5077887;28;20474;-82
2023/09/05 08:31:35;;;;;;;2.10;1.35;;;20.80;24.60;;;;;;5074818;28;20055;-81
2023/09/05 08:34:03;;;;;;;2.63;1.80;;;20.70;25.10;;;;;;5073562;28;20041;-84
2023/09/05 08:36:31;;;;;;;3.15;1.60;;;20.80;26.80;;;;;;5074184;28;20021;-86
2023/09/05 08:38:59;;;;;;;6.63;2.00;;;20.70;26.10;;;;;;5069006;28;20391;-83
2023/09/05 08:41:27;;;;;;;2.60;1.60;;;20.70;25.50;;;;;;5070067;28;20020;-85
2023/09/05 08:43:56;;;;;;;2.80;1.50;;;20.60;24.80;;;;;;5051295;28;20023;-84
2023/09/05 08:46:25;;;;;;;2.60;1.70;;;20.50;24.80;;;;;;5068918;28;20111;-81
2023/09/05 08:48:53;;;;;;;6.18;2.45;;;20.50;25.30;;;;;;5067018;28;20025;-80
2023/09/05 08:51:22;;;;;;;3.83;2.00;;;20.50;25.40;;;;;;5068739;28;20037;-85
2023/09/05 08:53:59;;;;;;;3.45;2.47;;;20.40;26.90;;;;;;5067887;28;20032;-81
2023/09/05 08:56:28;;;;;;;3.33;1.80;;;20.40;27.10;;;;;;5066801;28;20021;-78
2023/09/05 08:59:00;;;;;;;3.53;2.08;;;20.40;28.80;;;;;;5067440;28;20040;-80
2023/09/05 09:01:29;;;;;;;5.05;2.58;;;20.30;27.30;;;;;;5070185;28;20027;-84
2023/09/05 09:03:59;;;;;;;5.05;2.03;;;20.30;28.70;;;;;;5068573;28;20048;-85
2023/09/05 09:06:27;;;;;;;5.93;1.67;;;20.20;26.70;;;;;;5069146;28;20478;-85
2023/09/05 09:08:55;;;;;;;2.72;2.05;;;20.20;27.00;;;;;;5067485;28;20025;-77
2023/09/05 09:11:23;;;;;;;2.83;1.65;;;20.10;26.70;;;;;;5069073;28;20501;-82
2023/09/05 09:14:01;;;;;;;2.53;1.70;;;20.00;26.20;;;;;;5068451;28;20664;-79
2023/09/05 09:16:29;;;;;;;2.97;1.35;;;19.90;27.20;;;;;;5069482;28;20039;-78
2023/09/05 09:19:04;;;;;;;3.35;1.00;;;19.90;27.10;;;;;;5067207;28;20047;-84
2023/09/05 09:21:34;;;;;;;1.83;1.15;;;19.80;26.70;;;;;;5069088;28;20538;-79
2023/09/05 09:24:11;;;;;;;1.67;1.15;;;19.80;26.40;;;;;;5067165;28;20108;-77
2023/09/05 09:26:40;;;;;;;3.53;1.40;;;19.80;27.50;;;;;;5069188;28;20045;-83
2023/09/05 09:29:09;;;;;;;3.38;1.40;;;19.70;27.50;;;;;;5067050;28;20025;-83
2023/09/05 09:31:40;;;;;;;2.17;1.40;;;19.70;27.30;;;;;;5067863;28;20029;-81
2023/09/05 09:34:08;;;;;;;2.50;1.20;;;19.60;27.80;;;;;;5068332;28;20438;-83
2023/09/05 09:36:37;;;;;;;2.33;1.10;;;19.50;27.70;;;;;;5069077;28;20504;-84
2023/09/05 09:39:12;;;;;;;3.35;2.05;;;19.50;28.80;;;;;;5065598;28;20082;-85
2023/09/05 09:41:47;;;;;;;2.22;1.30;;;19.50;30.20;;;;;;5068343;28;20028;-84
2023/09/05 09:44:28;;;;;;;4.18;1.02;;;19.50;30.60;;;;;;5068604;28;20029;-82
2023/09/05 09:46:57;;;;;;;1.83;1.02;;;19.40;31.30;;;;;;5068304;28;20031;-83
2023/09/05 09:49:27;;;;;;;5.25;1.58;;;19.40;31.80;;;;;;5065373;28;20028;-83
2023/09/05 09:51:58;;;;;;;5.28;1.40;;;19.30;30.20;;;;;;5066466;28;20028;-80
2023/09/05 09:54:39;;;;;;;4.40;1.45;;;19.30;31.20;;;;;;5066199;28;20042;-83
2023/09/05 09:57:09;;;;;;;3.03;1.40;;;19.30;33.70;;;;;;5068155;28;20019;-85
2023/09/05 09:59:43;;;;;;;2.70;1.90;;;19.30;35.50;;;;;;5066945;28;20024;-85
2023/09/05 10:02:15;;;;;;;3.15;1.60;;;19.20;31.80;;;;;;5068242;28;20078;-85
2023/09/05 10:04:44;;;;;;;3.42;1.50;;;19.20;33.40;;;;;;5068127;28;20941;-83
2023/09/05 10:07:15;;;;;;;1.20;1.10;;;19.20;33.90;;;;;;5067568;28;20024;-80
2023/09/05 10:09:43;;;;;;;2.28;1.33;;;19.20;35.80;;;;;;5068331;28;20050;-83
2023/09/05 10:12:11;;;;;;;1.25;1.15;;;19.10;38.90;;;;;;5074005;28;20044;-84
2023/09/05 10:14:41;;;;;;;4.53;1.52;;;19.10;34.30;;;;;;5073994;28;20036;-81
2023/09/05 10:17:09;;;;;;;2.13;1.25;;;19.10;36.10;;;;;;5073576;28;20028;-85
2023/09/05 10:19:41;;;;;;;2.90;1.52;;;19.00;32.90;;;;;;5070044;28;20055;-85
2023/09/05 10:22:10;;;;;;;3.00;1.50;;;18.90;34.00;;;;;;5074608;28;20025;-85
2023/09/05 10:24:41;;;;;;;2.92;1.38;;;18.90;34.20;;;;;;5074854;28;20021;-85
2023/09/05 10:27:11;;;;;;;2.42;1.27;;;18.80;36.10;;;;;;5073948;28;20128;-86
2023/09/05 10:29:44;;;;;;;2.80;1.50;;;18.80;34.20;;;;;;5072737;28;20043;-80
2023/09/05 10:32:18;;;;;;;4.80;2.22;;;18.80;35.50;;;;;;5073597;28;20029;-79
2023/09/05 10:34:51;;;;;;;3.33;2.10;;;18.70;36.10;;;;;;5073356;28;20024;-83
2023/09/05 10:37:36;;;;;;;9.38;2.47;;;18.70;38.30;;;;;;5073095;28;20028;-80
2023/09/05 10:40:10;;;;;;;5.77;2.10;;;18.70;37.00;;;;;;5073227;28;20104;-80
2023/09/05 10:42:57;;;;;;;4.53;1.50;;;18.60;35.90;;;;;;5074584;28;20035;-82
2023/09/05 10:45:28;;;;;;;1.95;1.35;;;18.70;41.60;;;;;;5069634;28;20025;-82
2023/09/05 10:48:11;;;;;;;1.33;1.23;;;18.60;39.40;;;;;;5083638;28;20016;-83
2023/09/05 10:51:07;;;;;;;2.03;1.20;;;18.60;40.30;;;;;;5082314;28;20121;-83
2023/09/05 10:53:42;;;;;;;3.55;1.58;;;18.60;38.40;;;;;;5073293;28;20111;-84
2023/09/05 10:56:40;;;;;;;5.80;1.70;;;18.60;40.70;;;;;;5073434;28;20024;-85
2023/09/05 10:59:29;;;;;;;1.95;1.45;;;18.60;38.80;;;;;;5071841;28;20024;-79
2023/09/05 11:02:05;;;;;;;3.38;1.23;;;18.50;38.30;;;;;;5073184;28;20032;-79
2023/09/05 11:04:34;;;;;;;;;;;18.40;39.20;;;;;;5073378;28;20029;-78
2023/09/05 11:07:04;;;;;;;1.60;1.17;;;18.40;39.80;;;;;;5071673;28;19911;-81
2023/09/05 11:09:48;;;;;;;1.85;1.02;;;18.40;39.10;;;;;;5066892;28;20166;-78
2023/09/05 11:12:19;;;;;;;4.03;1.30;;;18.30;37.50;;;;;;5067476;28;20132;-74
2023/09/05 11:14:47;;;;;;;2.20;1.10;;;18.30;42.30;;;;;;5066537;28;20028;-82
2023/09/05 11:17:16;;;;;;;1.60;0.93;;;18.30;41.80;;;;;;5067189;28;20021;-77
2023/09/05 11:19:50;;;;;;;2.65;1.02;;;18.30;40.80;;;;;;5068359;28;20035;-83
2023/09/05 11:22:27;;;;;;;1.55;0.98;;;18.20;40.00;;;;;;5070997;28;20032;-74
2023/09/05 11:24:59;;;;;;;3.33;1.15;;;18.20;39.80;;;;;;5069786;28;20059;-82
2023/09/05 11:27:32;;;;;;;2.60;0.93;;;18.20;40.20;;;;;;5069059;28;20102;-81
2023/09/05 11:30:03;;;;;;;2.17;1.20;;;18.20;43.00;;;;;;5070728;28;20032;-78
2023/09/05 11:32:39;;;;;;;3.17;1.02;;;18.20;43.20;;;;;;5071039;28;20059;-78
2023/09/05 11:35:10;;;;;;;2.42;1.00;;;18.20;42.70;;;;;;5070792;28;20060;-81
2023/09/05 11:37:37;;;;;;;2.65;1.20;;;18.20;45.20;;;;;;5068769;28;20263;-84
2023/09/05 11:40:20;;;;;;;3.20;1.35;;;18.10;43.00;;;;;;5069882;28;20532;-84
2023/09/05 11:42:47;;;;;;;3.33;1.27;;;18.10;44.80;;;;;;5070258;28;20107;-86
2023/09/05 11:45:19;;;;;;;3.10;1.60;;;18.10;45.40;;;;;;5073287;28;20495;-85
2023/09/05 11:47:49;;;;;;;6.07;1.73;;;18.00;44.70;;;;;;5072205;28;20128;-82
2023/09/05 11:50:19;;;;;;;2.20;1.52;;;18.00;43.90;;;;;;5084844;28;20046;-75
2023/09/05 11:52:51;;;;;;;3.03;1.58;;;17.90;46.20;;;;;;5088465;28;20036;-76
2023/09/05 11:55:21;;;;;;;2.90;1.70;;;17.90;42.70;;;;;;5080789;28;20017;-84
2023/09/05 11:58:00;;;;;;;3.65;1.27;;;17.90;43.70;;;;;;5080304;28;20044;-84
2023/09/05 12:00:27;;;;;;;4.65;1.13;;;17.80;44.50;;;;;;5082075;28;20145;-82
2023/09/05 12:02:57;;;;;;;2.65;1.20;;;17.70;40.20;;;;;;5072718;28;20050;-85
2023/09/05 12:05:26;;;;;;;3.72;1.10;;;17.60;39.70;;;;;;5070149;28;20024;-80
2023/09/05 12:07:57;;;;;;;3.17;1.30;;;17.70;44.60;;;;;;5068490;28;20051;-83
2023/09/05 12:10:25;;;;;;;2.60;1.10;;;17.60;43.10;;;;;;5070456;28;20024;-78
2023/09/05 12:13:03;;;;;;;2.72;1.13;;;17.60;43.50;;;;;;5069007;28;20086;-80
2023/09/05 12:15:32;;;;;;;4.07;1.20;;;17.50;44.80;;;;;;5068865;28;20028;-80
2023/09/05 12:18:03;;;;;;;6.35;2.33;;;17.50;44.30;;;;;;5067454;28;20884;-80
2023/09/05 12:20:31;;;;;;;9.40;2.63;;;17.40;47.20;;;;;;5067606;28;20025;-76
2023/09/05 12:23:00;;;;;;;5.85;2.60;;;17.50;47.50;;;;;;5067707;28;20052;-80
2023/09/05 12:25:28;;;;;;;5.50;1.50;;;17.50;48.60;;;;;;5068587;28;20032;-77
2023/09/05 12:28:16;;;;;;;4.10;1.70;;;17.60;46.70;;;;;;5067717;28;20036;-75
2023/09/05 12:30:43;;;;;;;3.85;1.80;;;17.50;47.20;;;;;;5067884;28;20029;-80
2023/09/05 12:33:11;;;;;;;5.45;2.10;;;17.60;46.70;;;;;;5069054;28;20114;-77
2023/09/05 12:35:38;;;;;;;5.55;1.70;;;17.60;47.40;;;;;;5069318;28;20025;-77
2023/09/05 12:38:10;;;;;;;6.38;1.80;;;17.60;45.70;;;;;;5066145;28;20025;-75
2023/09/05 12:40:38;;;;;;;4.28;1.58;;;17.40;44.20;;;;;;5069554;28;20016;-82
2023/09/05 12:43:06;;;;;;;4.82;2.13;;;17.30;44.80;;;;;;5068825;28;20020;-80
2023/09/05 12:45:33;;;;;;;5.45;1.80;;;17.20;43.70;;;;;;5068948;28;20021;-81
2023/09/05 12:48:01;;;;;;;8.07;2.60;;;17.20;47.70;;;;;;5067094;28;20032;-77
2023/09/05 12:50:36;;;;;;;5.43;1.60;;;17.30;46.90;;;;;;5069109;28;20052;-82
2023/09/05 12:53:09;;;;;;;4.93;1.85;;;17.30;47.60;;;;;;5068484;28;20040;-85
2023/09/05 12:55:39;;;;;;;6.18;2.08;;;17.30;44.20;;;;;;5068400;28;20483;-81
2023/09/05 12:58:09;;;;;;;2.47;1.58;;;17.20;43.30;;;;;;5067822;28;20050;-80
2023/09/05 13:00:37;;;;;;;6.20;1.90;;;17.00;45.30;;;;;;5068551;28;20069;-84